Time;durP1;ratioP1;P1;durP2;ratioP2;P2;SDS_P1;SDS_P2;PMS_P1;PMS_P2;Temp;Humidity;BMP_temperature;BMP_pressure;BME280_temperature;BME280_humidity;BME280_pressure;Samples;Min_cycle;Max_cycle;Signal;HPM_P1;HPM_P2
2022/10/23 00:01:21;;;;;;;16.20;8.13;;;11.80;99.90;;;;;;5105778;27;20039;-83
2022/10/23 00:03:54;;;;;;;17.55;8.57;;;11.80;99.90;;;;;;5150154;27;20039;-83
2022/10/23 00:06:21;;;;;;;12.98;8.43;;;11.80;99.90;;;;;;5139901;27;20611;-83
2022/10/23 00:08:47;;;;;;;14.18;9.18;;;11.80;99.90;;;;;;5139693;27;20035;-83
2022/10/23 00:11:16;;;;;;;17.15;9.32;;;11.80;99.90;;;;;;5139525;27;20130;-84
2022/10/23 00:13:42;;;;;;;18.10;9.15;;;11.80;99.90;;;;;;5140115;27;20134;-83
2022/10/23 00:16:08;;;;;;;17.98;9.30;;;11.80;99.90;;;;;;5106391;27;20171;-83
2022/10/23 00:18:35;;;;;;;13.85;9.15;;;11.70;99.90;;;;;;5140306;27;20497;-83
2022/10/23 00:21:02;;;;;;;24.92;9.20;;;11.70;99.90;;;;;;5127649;27;20035;-83
2022/10/23 00:23:27;;;;;;;18.27;10.05;;;11.70;99.90;;;;;;5157927;27;20098;-83
2022/10/23 00:25:53;;;;;;;20.33;10.95;;;11.70;99.90;;;;;;5157491;27;20455;-84
2022/10/23 00:28:19;;;;;;;15.88;9.52;;;11.80;99.90;;;;;;5139878;27;20494;-84
2022/10/23 00:30:45;;;;;;;12.50;9.30;;;11.70;99.90;;;;;;5139198;27;20045;-84
2022/10/23 00:33:10;;;;;;;13.98;9.27;;;11.70;99.90;;;;;;5122193;27;20067;-84
2022/10/23 00:35:40;;;;;;;13.25;8.45;;;11.70;99.90;;;;;;5140386;27;20126;-84
2022/10/23 00:38:06;;;;;;;17.60;9.98;;;11.70;99.90;;;;;;5139673;27;20042;-83
2022/10/23 00:40:32;;;;;;;15.05;9.45;;;11.70;99.90;;;;;;5139538;27;20038;-84
2022/10/23 00:42:58;;;;;;;13.43;9.38;;;11.60;99.90;;;;;;5123006;27;20125;-84
2022/10/23 00:45:33;;;;;;;16.83;9.55;;;11.70;99.90;;;;;;5123964;27;20390;-83
2022/10/23 00:48:03;;;;;;;15.93;9.20;;;11.60;99.90;;;;;;5109807;27;20099;-84
2022/10/23 00:50:31;;;;;;;14.38;8.85;;;11.60;99.90;;;;;;5139942;27;20031;-83
2022/10/23 00:53:01;;;;;;;15.43;9.48;;;11.60;99.90;;;;;;5139987;27;20539;-83
2022/10/23 00:55:28;;;;;;;14.93;9.00;;;11.60;99.90;;;;;;5140006;27;20030;-84
2022/10/23 00:57:54;;;;;;;13.18;9.15;;;11.60;99.90;;;;;;5138579;27;20095;-83
2022/10/23 01:00:46;;;;;;;18.55;9.63;;;11.60;99.90;;;;;;5139060;27;20498;-84
2022/10/23 01:03:14;;;;;;;17.13;8.60;;;11.60;99.90;;;;;;5139169;27;20121;-83
2022/10/23 01:06:06;;;;;;;13.90;9.68;;;11.50;99.90;;;;;;5139522;27;20071;-83
2022/10/23 01:08:42;;;;;;;15.02;9.38;;;11.50;99.90;;;;;;5156715;27;20372;-83
2022/10/23 01:11:13;;;;;;;17.20;10.07;;;11.50;99.90;;;;;;5139105;27;20055;-83
2022/10/23 01:14:04;;;;;;;18.67;10.82;;;11.50;99.90;;;;;;5139547;27;20463;-83
2022/10/23 01:16:43;;;;;;;13.07;10.35;;;11.50;99.90;;;;;;5135481;27;20092;-83
2022/10/23 01:19:41;;;;;;;16.25;10.32;;;11.50;99.90;;;;;;5132472;27;20387;-84
2022/10/23 01:22:44;;;;;;;18.30;10.32;;;11.40;99.90;;;;;;5156375;27;20431;-83
2022/10/23 01:25:27;;;;;;;16.58;10.75;;;11.40;99.90;;;;;;5156435;27;20045;-83
2022/10/23 01:28:00;;;;;;;16.05;9.65;;;11.40;99.90;;;;;;5139215;27;20046;-83
2022/10/23 01:30:25;;;;;;;17.17;9.65;;;11.40;99.90;;;;;;5137925;27;20035;-83
2022/10/23 01:33:03;;;;;;;16.88;10.32;;;11.40;99.90;;;;;;5121600;27;20033;-83
2022/10/23 01:35:39;;;;;;;16.58;10.63;;;11.30;99.90;;;;;;5118764;27;20051;-84
2022/10/23 01:38:17;;;;;;;13.45;9.48;;;11.40;99.90;;;;;;5118831;27;20122;-83
2022/10/23 01:41:02;;;;;;;13.30;8.95;;;11.40;99.90;;;;;;5138836;27;20035;-84
2022/10/23 01:43:43;;;;;;;16.10;9.55;;;11.30;99.90;;;;;;5142399;27;20527;-83
2022/10/23 01:46:13;;;;;;;17.27;9.35;;;11.30;99.90;;;;;;5148629;27;20126;-84
2022/10/23 01:48:42;;;;;;;10.85;8.43;;;11.30;99.90;;;;;;5128090;27;20074;-83
2022/10/23 01:51:10;;;;;;;10.75;8.70;;;11.30;99.90;;;;;;5135459;27;20065;-83
2022/10/23 01:53:40;;;;;;;13.10;8.93;;;11.30;99.90;;;;;;5136485;27;20038;-83
2022/10/23 01:56:11;;;;;;;15.70;9.40;;;11.30;99.90;;;;;;5130388;27;20035;-84
2022/10/23 01:58:41;;;;;;;15.07;9.88;;;11.30;99.90;;;;;;5155047;27;20053;-84
2022/10/23 02:01:09;;;;;;;15.35;8.68;;;11.20;99.90;;;;;;5145516;27;20079;-84
2022/10/23 02:03:38;;;;;;;12.38;9.48;;;11.20;99.90;;;;;;5134406;27;20166;-84
2022/10/23 02:06:04;;;;;;;13.48;10.13;;;11.20;99.90;;;;;;5134801;27;20065;-84
2022/10/23 02:08:30;;;;;;;11.52;9.32;;;11.20;99.90;;;;;;5122420;27;20042;-83
2022/10/23 02:11:11;;;;;;;17.50;9.88;;;11.20;99.90;;;;;;5154546;27;20078;-83
2022/10/23 02:13:54;;;;;;;16.40;9.30;;;11.20;99.90;;;;;;5137895;27;20057;-83
2022/10/23 02:16:40;;;;;;;11.95;9.75;;;11.10;99.90;;;;;;5130424;27;20066;-83
2022/10/23 02:19:28;;;;;;;14.90;9.15;;;11.10;99.90;;;;;;5149816;27;20616;-83
2022/10/23 02:22:05;;;;;;;14.52;9.13;;;11.10;99.90;;;;;;5155048;27;20074;-84
2022/10/23 02:24:42;;;;;;;17.00;9.60;;;11.10;99.90;;;;;;5154865;27;20045;-83
2022/10/23 02:27:16;;;;;;;14.05;10.40;;;11.10;99.90;;;;;;5137752;27;20499;-84
2022/10/23 02:29:50;;;;;;;16.25;10.60;;;11.10;99.90;;;;;;5137746;27;20038;-83
2022/10/23 02:32:20;;;;;;;14.98;10.90;;;11.10;99.90;;;;;;5130791;27;20041;-83
2022/10/23 02:34:46;;;;;;;14.98;11.15;;;11.20;99.90;;;;;;5137475;27;20090;-83
2022/10/23 02:37:12;;;;;;;16.48;11.20;;;11.20;99.90;;;;;;5137296;27;20026;-84
2022/10/23 02:39:38;;;;;;;15.30;11.55;;;11.40;99.90;;;;;;5130735;27;20107;-83
2022/10/23 02:42:07;;;;;;;13.07;10.18;;;11.20;99.90;;;;;;5118453;27;20039;-84
2022/10/23 02:44:52;;;;;;;14.60;10.43;;;11.20;99.90;;;;;;5155056;27;20042;-83
2022/10/23 02:47:35;;;;;;;26.67;11.27;;;11.20;99.90;;;;;;5117116;27;20039;-84
2022/10/23 02:50:26;;;;;;;13.48;10.77;;;11.20;99.90;;;;;;5138799;27;20487;-84
2022/10/23 02:53:22;;;;;;;17.65;11.55;;;11.20;99.90;;;;;;5156897;27;20046;-83
2022/10/23 02:55:54;;;;;;;17.55;11.48;;;11.20;99.90;;;;;;5156057;27;20031;-83
2022/10/23 02:58:27;;;;;;;16.90;11.40;;;11.20;99.90;;;;;;5138097;27;20126;-83
2022/10/23 03:01:12;;;;;;;15.93;12.05;;;11.10;99.90;;;;;;5137269;27;20038;-82
2022/10/23 03:03:47;;;;;;;18.95;11.68;;;11.10;99.90;;;;;;5138350;27;20047;-84
2022/10/23 03:06:15;;;;;;;16.35;11.50;;;11.10;99.90;;;;;;5156046;27;20118;-84
2022/10/23 03:08:52;;;;;;;16.08;11.73;;;11.10;99.90;;;;;;5138396;27;20039;-84
2022/10/23 03:11:18;;;;;;;17.35;11.88;;;11.10;99.90;;;;;;5154942;27;20050;-84
2022/10/23 03:13:44;;;;;;;15.48;12.05;;;11.10;99.90;;;;;;5155324;27;20565;-83
2022/10/23 03:16:10;;;;;;;18.23;11.48;;;11.10;99.90;;;;;;5137858;27;20066;-84
2022/10/23 03:18:35;;;;;;;15.00;11.15;;;11.20;99.90;;;;;;5158701;27;20039;-83
2022/10/23 03:21:02;;;;;;;20.42;11.50;;;11.10;99.90;;;;;;5134976;27;20063;-83
2022/10/23 03:23:27;;;;;;;19.83;12.70;;;11.10;99.90;;;;;;5170602;27;20038;-84
2022/10/23 03:25:54;;;;;;;18.83;12.77;;;11.10;99.90;;;;;;5129620;27;20161;-84
2022/10/23 03:28:20;;;;;;;16.80;12.02;;;11.10;99.90;;;;;;5126281;27;20074;-83
2022/10/23 03:30:46;;;;;;;17.27;11.85;;;11.10;99.90;;;;;;5140764;27;20078;-84
2022/10/23 03:33:12;;;;;;;17.98;13.10;;;11.10;99.90;;;;;;5123845;27;20393;-84
2022/10/23 03:35:39;;;;;;;21.42;12.60;;;11.10;99.90;;;;;;5107138;27;20047;-83
2022/10/23 03:38:05;;;;;;;21.05;13.23;;;11.10;99.90;;;;;;5135311;27;20027;-83
2022/10/23 03:40:31;;;;;;;20.88;13.95;;;11.10;99.90;;;;;;5104840;27;20037;-84
2022/10/23 03:42:57;;;;;;;19.63;13.68;;;11.10;99.90;;;;;;5110656;27;20034;-84
2022/10/23 03:45:23;;;;;;;25.90;14.20;;;11.10;99.90;;;;;;5110465;27;20138;-84
2022/10/23 03:47:50;;;;;;;19.77;13.15;;;11.10;99.90;;;;;;5161100;27;20082;-84
2022/10/23 03:50:18;;;;;;;18.75;12.85;;;11.10;99.90;;;;;;5144164;27;20039;-84
2022/10/23 03:52:47;;;;;;;22.20;13.05;;;11.10;99.90;;;;;;5160891;27;20039;-84
2022/10/23 03:55:13;;;;;;;21.85;13.68;;;11.10;99.90;;;;;;5125787;27;20035;-84
2022/10/23 03:57:39;;;;;;;23.30;13.02;;;11.10;99.90;;;;;;5126626;27;20098;-84
2022/10/23 04:00:05;;;;;;;19.02;12.38;;;11.00;99.90;;;;;;5143448;27;20046;-84
2022/10/23 04:02:31;;;;;;;21.50;13.02;;;11.00;99.90;;;;;;5127156;27;20492;-84
2022/10/23 04:04:57;;;;;;;19.70;12.68;;;11.10;99.90;;;;;;5161208;27;20080;-83
2022/10/23 04:07:23;;;;;;;19.30;12.32;;;11.00;99.90;;;;;;5143543;27;20045;-83
2022/10/23 04:09:49;;;;;;;17.83;12.73;;;11.00;99.90;;;;;;5126084;27;20042;-83
2022/10/23 04:12:15;;;;;;;21.85;13.60;;;11.00;99.90;;;;;;5122272;27;20081;-83
2022/10/23 04:14:40;;;;;;;21.35;13.43;;;11.00;99.90;;;;;;5123487;27;20087;-84
2022/10/23 04:17:06;;;;;;;19.25;12.88;;;11.00;99.90;;;;;;5126022;27;20035;-83
2022/10/23 04:19:32;;;;;;;19.83;13.02;;;11.00;99.90;;;;;;5122318;27;20039;-84
2022/10/23 04:21:57;;;;;;;28.77;13.40;;;11.00;99.90;;;;;;5105686;27;20383;-83
2022/10/23 04:24:24;;;;;;;18.75;13.40;;;11.00;99.90;;;;;;5109594;27;20031;-84
2022/10/23 04:26:50;;;;;;;20.95;13.68;;;11.00;99.90;;;;;;5143457;27;20565;-84
2022/10/23 04:29:16;;;;;;;20.40;13.30;;;11.00;99.90;;;;;;5143344;27;20121;-84
2022/10/23 04:31:42;;;;;;;24.00;13.55;;;11.00;99.90;;;;;;5142445;27;20074;-84
2022/10/23 04:34:07;;;;;;;19.75;12.75;;;11.00;99.90;;;;;;5140082;27;20121;-83
2022/10/23 04:36:33;;;;;;;25.30;13.43;;;11.00;99.90;;;;;;5105890;27;20045;-83
2022/10/23 04:39:00;;;;;;;20.20;13.00;;;11.00;99.90;;;;;;5139210;27;20387;-84
2022/10/23 04:41:26;;;;;;;20.75;12.88;;;11.00;99.90;;;;;;5139737;27;20041;-80
2022/10/23 04:43:52;;;;;;;22.15;11.80;;;11.00;99.90;;;;;;5122475;27;20034;-80
2022/10/23 04:46:18;;;;;;;21.58;12.60;;;11.00;99.90;;;;;;5139476;27;20505;-80
2022/10/23 04:48:44;;;;;;;18.10;12.27;;;11.00;99.90;;;;;;5156024;27;20035;-80
2022/10/23 04:51:10;;;;;;;17.73;12.38;;;11.00;99.90;;;;;;5138622;27;20087;-80
2022/10/23 04:53:37;;;;;;;18.85;11.77;;;10.90;99.90;;;;;;5100670;27;20043;-80
2022/10/23 04:56:04;;;;;;;22.05;13.38;;;11.00;99.90;;;;;;5098409;27;20039;-80
2022/10/23 04:58:30;;;;;;;20.92;12.38;;;11.00;99.90;;;;;;5121923;27;20045;-80
2022/10/23 05:00:57;;;;;;;20.35;12.75;;;11.00;99.90;;;;;;5139287;27;20039;-80
2022/10/23 05:03:24;;;;;;;20.55;12.50;;;10.90;99.90;;;;;;5138807;27;20049;-81
2022/10/23 05:05:53;;;;;;;22.45;12.95;;;10.90;99.90;;;;;;5139076;27;20034;-80
2022/10/23 05:08:19;;;;;;;21.83;12.57;;;10.90;99.90;;;;;;5154665;27;20502;-81
2022/10/23 05:10:46;;;;;;;20.55;11.85;;;10.90;99.90;;;;;;5121623;27;20066;-81
2022/10/23 05:13:11;;;;;;;23.08;12.65;;;10.90;99.90;;;;;;5156148;27;20054;-80
2022/10/23 05:15:37;;;;;;;19.80;12.52;;;10.90;99.90;;;;;;5138575;27;20090;-80
2022/10/23 05:18:15;;;;;;;19.52;12.05;;;10.90;99.90;;;;;;5138544;27;20427;-81
2022/10/23 05:20:44;;;;;;;19.35;12.27;;;10.90;99.90;;;;;;5133847;27;20115;-81
2022/10/23 05:23:11;;;;;;;23.40;12.60;;;10.90;99.90;;;;;;5137601;27;20039;-81
2022/10/23 05:25:37;;;;;;;22.35;12.20;;;10.90;99.90;;;;;;5121605;27;20034;-80
2022/10/23 05:28:03;;;;;;;22.38;12.63;;;10.90;99.90;;;;;;5118246;27;20164;-81
2022/10/23 05:30:29;;;;;;;25.63;12.55;;;11.00;99.90;;;;;;5144775;27;20035;-80
2022/10/23 05:32:55;;;;;;;20.30;12.45;;;11.00;99.90;;;;;;5117769;27;20046;-81
2022/10/23 05:35:22;;;;;;;18.65;12.35;;;11.00;99.90;;;;;;5134007;27;20126;-80
2022/10/23 05:37:50;;;;;;;17.60;12.15;;;11.00;99.90;;;;;;5137554;27;20031;-80
2022/10/23 05:40:16;;;;;;;16.80;11.95;;;11.00;99.90;;;;;;5138528;27;20058;-80
2022/10/23 05:42:42;;;;;;;20.20;12.65;;;11.00;99.90;;;;;;5121554;27;20473;-80
2022/10/23 05:45:08;;;;;;;20.60;12.27;;;11.00;99.90;;;;;;5117416;27;20062;-80
2022/10/23 05:47:35;;;;;;;19.50;12.25;;;11.00;99.90;;;;;;5111227;27;20038;-80
2022/10/23 05:50:00;;;;;;;20.08;12.88;;;11.00;99.90;;;;;;5119473;27;20053;-79
2022/10/23 05:52:26;;;;;;;20.65;12.23;;;11.00;99.90;;;;;;5137462;27;20031;-80
2022/10/23 05:54:53;;;;;;;20.38;11.68;;;11.00;99.90;;;;;;5120702;27;20068;-79
2022/10/23 05:57:19;;;;;;;20.20;11.93;;;11.00;99.90;;;;;;5120659;27;20113;-79
2022/10/23 05:59:44;;;;;;;21.08;12.05;;;11.00;99.90;;;;;;5154771;27;20038;-80
2022/10/23 06:02:10;;;;;;;20.05;11.93;;;11.00;99.90;;;;;;5120086;27;20488;-79
2022/10/23 06:04:36;;;;;;;25.95;12.48;;;11.00;99.90;;;;;;5112471;27;20049;-80
2022/10/23 06:07:02;;;;;;;28.27;12.65;;;11.00;99.90;;;;;;5116731;27;20554;-80
2022/10/23 06:09:29;;;;;;;19.75;11.85;;;11.00;99.90;;;;;;5134289;27;20099;-79
2022/10/23 06:11:55;;;;;;;23.83;13.25;;;11.00;99.90;;;;;;5120076;27;20046;-80
2022/10/23 06:14:21;;;;;;;24.63;11.25;;;11.00;99.90;;;;;;5118150;27;20483;-80
2022/10/23 06:16:47;;;;;;;18.80;12.13;;;11.00;99.90;;;;;;5120367;27;20078;-80
2022/10/23 06:19:13;;;;;;;21.10;12.15;;;11.00;99.90;;;;;;5135577;27;20471;-80
2022/10/23 06:21:39;;;;;;;21.95;12.35;;;11.10;99.90;;;;;;5136677;27;20095;-80
2022/10/23 06:24:06;;;;;;;20.95;11.88;;;11.10;99.90;;;;;;5137258;27;20037;-79
2022/10/23 06:26:32;;;;;;;22.60;12.20;;;11.10;99.90;;;;;;5136458;27;20034;-80
2022/10/23 06:28:59;;;;;;;17.08;11.82;;;11.10;99.90;;;;;;5136635;27;20045;-80
2022/10/23 06:31:27;;;;;;;19.65;12.20;;;11.10;99.90;;;;;;5135914;27;20394;-80
2022/10/23 06:33:57;;;;;;;17.92;11.52;;;11.10;99.90;;;;;;5112528;27;20043;-80
2022/10/23 06:36:23;;;;;;;21.75;12.63;;;11.10;99.90;;;;;;5118675;27;20045;-80
2022/10/23 06:38:49;;;;;;;19.73;11.98;;;11.10;99.90;;;;;;5135778;27;20041;-80
2022/10/23 06:41:17;;;;;;;20.30;12.45;;;11.20;99.90;;;;;;5136597;27;20575;-80
2022/10/23 06:43:43;;;;;;;18.73;11.55;;;11.20;99.90;;;;;;5135164;27;20070;-80
2022/10/23 06:46:09;;;;;;;25.00;12.18;;;11.30;99.90;;;;;;5110920;27;20079;-79
2022/10/23 06:48:34;;;;;;;19.35;12.00;;;11.20;99.90;;;;;;5148067;27;20049;-78
2022/10/23 06:51:05;;;;;;;20.85;11.98;;;11.20;99.90;;;;;;5115627;27;20066;-78
2022/10/23 06:53:31;;;;;;;21.88;12.02;;;11.20;99.90;;;;;;5149081;27;20030;-80
2022/10/23 06:56:02;;;;;;;19.90;12.20;;;11.20;99.90;;;;;;5134645;27;20519;-79
2022/10/23 06:58:28;;;;;;;21.27;12.93;;;11.20;99.90;;;;;;5115208;27;20122;-79
2022/10/23 07:00:54;;;;;;;18.83;12.50;;;11.30;99.90;;;;;;5135764;27;20118;-79
2022/10/23 07:03:19;;;;;;;17.45;11.88;;;11.30;99.90;;;;;;5135202;27;20066;-79
2022/10/23 07:05:46;;;;;;;19.52;11.32;;;11.30;99.90;;;;;;5099948;27;20466;-78
2022/10/23 07:08:12;;;;;;;19.60;12.05;;;11.30;99.90;;;;;;5149251;27;20083;-78
2022/10/23 07:10:41;;;;;;;21.58;11.80;;;11.40;99.90;;;;;;5151897;27;20042;-78
2022/10/23 07:13:10;;;;;;;18.52;11.38;;;11.40;99.90;;;;;;5133170;27;20440;-79
2022/10/23 07:15:36;;;;;;;18.83;11.65;;;11.40;99.90;;;;;;5127784;27;20031;-78
2022/10/23 07:18:03;;;;;;;22.08;11.82;;;11.40;99.90;;;;;;5133652;27;20039;-79
2022/10/23 07:20:28;;;;;;;19.95;11.40;;;11.40;99.90;;;;;;5132974;27;20043;-83
2022/10/23 07:22:55;;;;;;;20.08;12.15;;;11.40;99.90;;;;;;5099963;27;20050;-79
2022/10/23 07:25:22;;;;;;;19.40;12.18;;;11.50;99.90;;;;;;5115544;28;20075;-80
2022/10/23 07:27:48;;;;;;;19.60;11.98;;;11.50;99.90;;;;;;5142560;27;20047;-79
2022/10/23 07:30:14;;;;;;;18.67;11.95;;;11.50;99.90;;;;;;5134851;27;20447;-80
2022/10/23 07:32:40;;;;;;;21.58;12.13;;;11.60;99.90;;;;;;5134651;27;20058;-79
2022/10/23 07:35:07;;;;;;;20.13;12.05;;;11.60;99.90;;;;;;5136228;27;20096;-79
2022/10/23 07:37:32;;;;;;;23.33;12.23;;;11.60;99.90;;;;;;5134082;27;20110;-81
2022/10/23 07:39:58;;;;;;;18.55;11.30;;;11.60;99.90;;;;;;5097985;28;20471;-80
2022/10/23 07:42:24;;;;;;;20.25;11.98;;;11.70;99.90;;;;;;5117688;27;20038;-80
2022/10/23 07:44:49;;;;;;;20.67;11.43;;;11.60;99.90;;;;;;5118768;27;20390;-80
2022/10/23 07:47:15;;;;;;;18.52;12.20;;;11.70;99.90;;;;;;5141807;27;20117;-80
2022/10/23 07:49:41;;;;;;;16.73;11.27;;;11.70;99.90;;;;;;5145719;27;20526;-80
2022/10/23 07:52:06;;;;;;;23.88;11.43;;;11.70;99.90;;;;;;5110422;27;20402;-82
2022/10/23 07:54:33;;;;;;;17.08;11.95;;;11.80;99.90;;;;;;5119883;27;20042;-80
2022/10/23 07:56:59;;;;;;;18.45;12.00;;;11.80;99.90;;;;;;5115138;28;20063;-79
2022/10/23 07:59:25;;;;;;;21.42;12.57;;;11.80;99.90;;;;;;5133706;27;20121;-81
2022/10/23 08:01:53;;;;;;;18.00;13.13;;;11.90;99.90;;;;;;5133494;27;20130;-80
2022/10/23 08:04:19;;;;;;;19.50;12.23;;;11.90;99.90;;;;;;5130217;27;20042;-80
2022/10/23 08:06:45;;;;;;;17.80;12.18;;;11.90;99.90;;;;;;5117137;27;20133;-80
2022/10/23 08:09:11;;;;;;;17.95;12.68;;;12.00;99.90;;;;;;5101821;27;20440;-81
2022/10/23 08:11:36;;;;;;;24.38;12.10;;;12.00;99.90;;;;;;5102369;27;20055;-80
2022/10/23 08:14:04;;;;;;;16.83;11.73;;;12.00;99.90;;;;;;5110879;27;20043;-80
2022/10/23 08:16:36;;;;;;;15.50;11.15;;;12.10;99.90;;;;;;5155771;27;20061;-80
2022/10/23 08:19:03;;;;;;;19.98;11.48;;;12.10;99.90;;;;;;5131309;27;20055;-80
2022/10/23 08:21:29;;;;;;;21.13;12.35;;;12.20;99.90;;;;;;5132996;27;20043;-80
2022/10/23 08:23:57;;;;;;;19.08;11.40;;;12.20;99.90;;;;;;5117477;27;20043;-80
2022/10/23 08:26:24;;;;;;;17.13;11.00;;;12.30;99.90;;;;;;5134556;27;20039;-81
2022/10/23 08:28:53;;;;;;;19.63;11.38;;;12.30;99.90;;;;;;5135168;27;20487;-80
2022/10/23 08:31:20;;;;;;;16.27;11.40;;;12.40;99.90;;;;;;5118035;27;20042;-83
2022/10/23 08:33:46;;;;;;;18.95;11.63;;;12.40;99.90;;;;;;5139481;27;20041;-83
2022/10/23 08:36:30;;;;;;;18.60;11.82;;;12.50;99.90;;;;;;5139735;27;20042;-83
2022/10/23 08:38:57;;;;;;;17.25;11.63;;;12.50;99.90;;;;;;5139624;27;20066;-83
2022/10/23 08:41:28;;;;;;;19.13;11.38;;;12.60;99.90;;;;;;5157512;27;20031;-83
2022/10/23 08:44:04;;;;;;;14.68;11.13;;;12.60;99.90;;;;;;5156933;27;20042;-84
2022/10/23 08:46:36;;;;;;;14.38;11.65;;;12.70;99.90;;;;;;5139313;27;20034;-84
2022/10/23 08:49:16;;;;;;;18.70;10.88;;;12.80;99.90;;;;;;5138769;27;20038;-82
2022/10/23 08:51:45;;;;;;;14.82;11.25;;;12.80;99.90;;;;;;5156859;27;20143;-84
2022/10/23 08:54:21;;;;;;;13.50;10.35;;;12.80;99.90;;;;;;5156697;27;20039;-83
2022/10/23 08:56:56;;;;;;;16.38;10.77;;;12.90;99.90;;;;;;5157220;27;20091;-83
2022/10/23 08:59:31;;;;;;;19.02;11.15;;;13.00;99.90;;;;;;5156873;27;20472;-82
2022/10/23 09:02:12;;;;;;;16.85;10.38;;;13.00;99.90;;;;;;5139578;27;20386;-82
2022/10/23 09:04:45;;;;;;;15.65;10.77;;;13.00;99.90;;;;;;5122669;27;20043;-82
2022/10/23 09:07:47;;;;;;;17.45;11.13;;;13.10;99.90;;;;;;5119909;27;20075;-82
2022/10/23 09:10:35;;;;;;;14.82;10.32;;;13.20;99.90;;;;;;5118893;27;20488;-83
2022/10/23 09:13:38;;;;;;;15.00;9.82;;;13.20;99.90;;;;;;5118549;27;20100;-83
2022/10/23 09:16:24;;;;;;;18.05;10.25;;;13.30;99.90;;;;;;5118875;27;20126;-82
2022/10/23 09:18:56;;;;;;;15.73;10.55;;;13.30;99.90;;;;;;5117480;27;20046;-83
2022/10/23 09:21:28;;;;;;;22.70;10.38;;;13.40;99.90;;;;;;5135573;27;20118;-83
2022/10/23 09:23:54;;;;;;;14.88;10.00;;;13.40;99.90;;;;;;5118286;27;20122;-83
2022/10/23 09:26:20;;;;;;;19.63;10.55;;;13.50;99.90;;;;;;5118377;27;20043;-83
2022/10/23 09:28:49;;;;;;;14.90;10.32;;;13.60;99.90;;;;;;5118330;27;20039;-83
2022/10/23 09:31:16;;;;;;;17.52;10.13;;;13.60;99.90;;;;;;5135256;27;20043;-83
2022/10/23 09:34:00;;;;;;;12.82;9.63;;;13.60;99.90;;;;;;5118375;27;20046;-84
2022/10/23 09:36:28;;;;;;;16.40;10.23;;;13.70;99.90;;;;;;5136002;27;20047;-84
2022/10/23 09:38:57;;;;;;;14.52;9.35;;;13.70;99.90;;;;;;5137341;27;20038;-82
2022/10/23 09:41:27;;;;;;;15.90;10.73;;;13.70;99.90;;;;;;5156157;27;20471;-83
2022/10/23 09:44:23;;;;;;;16.02;10.27;;;13.80;99.90;;;;;;5138755;27;20091;-84
2022/10/23 09:46:58;;;;;;;13.63;9.77;;;13.80;99.90;;;;;;5154567;27;20054;-83
2022/10/23 09:49:29;;;;;;;14.20;9.68;;;13.80;99.90;;;;;;5155752;27;20043;-83
2022/10/23 09:52:07;;;;;;;15.02;9.10;;;13.90;99.90;;;;;;5138629;27;20038;-84
2022/10/23 09:54:37;;;;;;;12.43;8.77;;;13.90;99.90;;;;;;5138741;27;20051;-84
2022/10/23 09:57:42;;;;;;;14.50;8.65;;;13.90;99.90;;;;;;5155796;27;20054;-83
2022/10/23 10:00:24;;;;;;;20.83;9.48;;;13.90;99.90;;;;;;5118914;27;20486;-83
2022/10/23 10:02:59;;;;;;;13.15;9.07;;;14.00;99.90;;;;;;5138671;27;20042;-83
2022/10/23 10:05:30;;;;;;;16.25;9.07;;;14.00;99.90;;;;;;5155539;27;20083;-83
2022/10/23 10:08:19;;;;;;;17.60;9.07;;;14.00;99.90;;;;;;5155973;27;20047;-84
2022/10/23 10:11:23;;;;;;;12.15;8.48;;;14.10;99.90;;;;;;5137774;27;20078;-84
2022/10/23 10:14:21;;;;;;;16.73;8.90;;;14.20;99.90;;;;;;5134835;27;20057;-83
2022/10/23 10:16:58;;;;;;;10.52;8.57;;;14.20;99.90;;;;;;5130455;27;20085;-83
2022/10/23 10:19:38;;;;;;;12.88;8.50;;;14.30;99.90;;;;;;5138206;27;20047;-83
2022/10/23 10:22:29;;;;;;;12.07;7.65;;;14.30;99.90;;;;;;5137941;27;20031;-84
2022/10/23 10:25:07;;;;;;;15.13;8.60;;;14.40;99.90;;;;;;5154830;27;20043;-83
2022/10/23 10:27:36;;;;;;;12.95;8.10;;;14.30;99.90;;;;;;5137531;27;20046;-83
2022/10/23 10:30:34;;;;;;;11.73;7.68;;;14.40;99.90;;;;;;5137660;27;20042;-83
2022/10/23 10:33:14;;;;;;;15.57;7.80;;;14.40;99.90;;;;;;5141028;27;20046;-83
2022/10/23 10:36:02;;;;;;;15.23;7.88;;;14.40;99.90;;;;;;5155055;27;20035;-83
2022/10/23 10:39:02;;;;;;;14.65;7.30;;;14.40;99.90;;;;;;5138001;27;20041;-83
2022/10/23 10:41:57;;;;;;;12.57;7.10;;;14.50;99.90;;;;;;5137584;27;20070;-83
2022/10/23 10:44:47;;;;;;;11.93;7.07;;;14.50;99.90;;;;;;5155365;27;20375;-83
2022/10/23 10:47:50;;;;;;;11.38;7.10;;;14.50;99.90;;;;;;5117374;27;20088;-83
2022/10/23 10:50:42;;;;;;;10.02;6.70;;;14.50;99.90;;;;;;5123531;27;20134;-83
2022/10/23 10:53:19;;;;;;;9.35;6.85;;;14.50;99.90;;;;;;5134291;27;20043;-83
2022/10/23 10:55:51;;;;;;;18.30;7.45;;;14.50;99.90;;;;;;5116998;27;20039;-83
2022/10/23 10:58:35;;;;;;;14.13;7.15;;;14.50;99.90;;;;;;5116860;27;20118;-83
2022/10/23 11:01:12;;;;;;;10.90;6.78;;;14.50;99.90;;;;;;5116497;27;20042;-83
2022/10/23 11:03:38;;;;;;;11.30;6.30;;;14.50;99.90;;;;;;5150556;27;20130;-83
2022/10/23 11:06:08;;;;;;;11.00;6.10;;;14.50;99.90;;;;;;5154066;27;20046;-83
2022/10/23 11:08:39;;;;;;;10.50;6.65;;;14.50;99.90;;;;;;5137027;27;20077;-83
2022/10/23 11:11:13;;;;;;;9.65;6.68;;;14.50;99.90;;;;;;5119891;27;20046;-83
2022/10/23 11:13:42;;;;;;;8.48;5.68;;;14.50;99.90;;;;;;5154482;27;20046;-83
2022/10/23 11:16:10;;;;;;;11.98;6.70;;;14.40;99.90;;;;;;5154495;27;20031;-83
2022/10/23 11:18:39;;;;;;;8.68;6.15;;;14.50;99.90;;;;;;5137501;27;20398;-84
2022/10/23 11:21:10;;;;;;;12.88;6.63;;;14.60;99.90;;;;;;5117348;28;20437;-83
2022/10/23 11:24:07;;;;;;;9.77;5.97;;;14.60;99.90;;;;;;5117000;28;20387;-83
2022/10/23 11:27:10;;;;;;;11.68;5.50;;;14.70;99.90;;;;;;5116750;28;20130;-83
2022/10/23 11:29:56;;;;;;;15.18;5.53;;;14.70;99.90;;;;;;5116775;28;20043;-82
2022/10/23 11:32:36;;;;;;;9.57;5.15;;;14.70;99.90;;;;;;5116555;28;20074;-82
2022/10/23 11:35:39;;;;;;;11.90;5.32;;;14.70;99.90;;;;;;5133856;28;20092;-82
2022/10/23 11:38:11;;;;;;;9.13;4.95;;;14.80;99.90;;;;;;5133993;28;20039;-83
2022/10/23 11:40:47;;;;;;;10.32;5.15;;;14.90;99.90;;;;;;5116942;28;20035;-82
2022/10/23 11:43:45;;;;;;;13.00;5.10;;;14.80;99.90;;;;;;5137118;27;20039;-83
2022/10/23 11:46:12;;;;;;;13.05;5.32;;;14.80;99.90;;;;;;5120667;27;20043;-83
2022/10/23 11:48:41;;;;;;;8.82;5.22;;;14.90;99.90;;;;;;5121005;27;20108;-82
2022/10/23 11:51:35;;;;;;;16.92;5.00;;;14.90;99.90;;;;;;5137383;27;20049;-83
2022/10/23 11:54:23;;;;;;;12.95;5.70;;;14.90;99.90;;;;;;5148753;27;20035;-83
2022/10/23 11:56:55;;;;;;;8.88;4.93;;;14.90;99.90;;;;;;5140782;27;20372;-83
2022/10/23 11:59:29;;;;;;;8.48;4.68;;;14.90;99.90;;;;;;5141154;27;20043;-82
2022/10/23 12:01:58;;;;;;;8.80;5.25;;;14.90;99.90;;;;;;5140378;27;20486;-82
2022/10/23 12:04:29;;;;;;;10.70;5.68;;;14.90;99.90;;;;;;5158725;27;20043;-83
2022/10/23 12:07:01;;;;;;;11.90;5.03;;;14.90;99.90;;;;;;5158311;27;20483;-83
2022/10/23 12:09:36;;;;;;;8.98;5.30;;;14.90;99.90;;;;;;5158652;27;20034;-83
2022/10/23 12:12:06;;;;;;;10.23;5.55;;;15.00;99.90;;;;;;5120726;27;20559;-83
2022/10/23 12:14:38;;;;;;;12.23;5.43;;;15.00;99.90;;;;;;5138265;27;20051;-82
2022/10/23 12:17:23;;;;;;;17.15;5.65;;;15.00;99.90;;;;;;5139858;27;20148;-83
2022/10/23 12:20:00;;;;;;;13.65;5.10;;;15.00;99.90;;;;;;5143743;27;20042;-83
2022/10/23 12:22:36;;;;;;;11.90;5.47;;;15.00;99.90;;;;;;5158806;27;20402;-83
2022/10/23 12:25:13;;;;;;;10.13;5.90;;;15.00;99.90;;;;;;5158056;27;20050;-83
2022/10/23 12:27:43;;;;;;;11.45;5.32;;;15.00;99.90;;;;;;5149076;27;20031;-82
2022/10/23 12:30:19;;;;;;;7.63;5.47;;;15.00;99.90;;;;;;5136479;27;20070;-83
2022/10/23 12:32:56;;;;;;;11.45;5.60;;;15.00;99.90;;;;;;5136418;27;20047;-82
2022/10/23 12:35:42;;;;;;;9.38;5.57;;;15.00;99.90;;;;;;5119711;27;20066;-82
2022/10/23 12:38:28;;;;;;;12.80;5.43;;;15.10;99.90;;;;;;5136607;27;20043;-83
2022/10/23 12:41:23;;;;;;;9.90;4.72;;;15.10;99.90;;;;;;5119511;27;20039;-83
2022/10/23 12:44:03;;;;;;;12.05;5.38;;;15.10;99.90;;;;;;5136604;27;20499;-83
2022/10/23 12:46:39;;;;;;;7.78;4.90;;;15.10;99.90;;;;;;5119188;27;20076;-83
2022/10/23 12:49:15;;;;;;;11.07;5.28;;;15.10;99.90;;;;;;5155760;27;20049;-82
2022/10/23 12:51:40;;;;;;;;;;;15.20;99.90;;;;;;5139463;27;20042;-83
2022/10/23 12:54:15;;;;;;;6.57;4.63;;;15.20;99.90;;;;;;5117566;27;19930;-82
2022/10/23 12:56:43;;;;;;;9.85;4.93;;;15.20;99.90;;;;;;5118480;27;20776;-82